Commodore Goodwill — C6NU8 — position and weather

sailwx.info

Track history (hours):
 
Tides and Currents Weather Stations Pressure Air Temp Water Temp Dewpoint Dewpoint Depression Visibility Wind Speed Wind Dir Waves Ship Positions

Commodore Goodwill

Operator: Condor Marine Services

Last reported at 2020-Aug-09 04:17 UTC. Time now 2020-Aug-09 05:11 UTC.
Position N 50°29' W 001°15'.

Length 126 m; draft 5 m.

Type: Ship (hazmat cat C). MMSI: 309536000.

Date/timePositionNaut miles runAvg speedWind from/ knotsBaromVisibWave heightAir tempDewpointWater temp
2020-Aug-09 04:17N 50°29' W 001°15'45 9.3
2020-Aug-08 23:30N 49°52' W 001°53'9 8.9
2020-Aug-08 22:30N 49°44' W 002°01'1010.2
2020-Aug-08 21:30N 49°35' W 002°05'2 0.6
2020-Aug-08 17:30N 49°36' W 002°09'14 4.5
2020-Aug-08 14:30N 49°27' W 002°25'5 3.1
2020-Aug-08 13:01N 49°27' W 002°32'8 5.4
2020-Aug-08 11:30N 49°20' W 002°25'4 7.3
2020-Aug-08 11:00N 49°17' W 002°23'12 7.7
2020-Aug-08 09:28N 49°10' W 002°09'1 2.7
2020-Aug-08 08:55N 49°11' W 002°07'0 0.0
2020-Aug-08 08:00N 49°11' W 002°07'9 3.0
2020-Aug-08 05:00N 49°13' W 002°20'8 8.1
2020-Aug-08 04:00N 49°20' W 002°25'3 6.0
2020-Aug-08 03:30N 49°23' W 002°27'4 7.0
2020-Aug-08 03:00N 49°26' W 002°29'9 4.4
2020-Aug-08 01:00N 49°30' W 002°18'1413.6
2020-Aug-08 00:00N 49°41' W 002°05'2914.7
2020-Aug-07 22:00N 50°06' W 001°40'3815.2
2020-Aug-07 19:31N 50°36' W 001°05'13 6.3
2020-Aug-07 17:31N 50°49' W 001°06'0 0.0
2020-Aug-07 16:31N 50°49' W 001°06'14 5.8
2020-Aug-07 14:00N 50°35' W 001°10'1515.4
2020-Aug-07 13:00N 50°22' W 001°23'918.3
2020-Aug-07 12:30N 50°15' W 001°32'3015.2
2020-Aug-07 10:30N 49°49' W 001°57'816.3
2020-Aug-07 10:00N 49°42' W 002°04'31 8.9
2020-Aug-07 06:28N 49°11' W 002°07'6 3.9
2020-Aug-07 05:01N 49°10' W 002°16'510.9
2020-Aug-07 04:31N 49°14' W 002°21'713.4
2020-Aug-07 04:00N 49°20' W 002°25'612.8
2020-Aug-07 03:30N 49°26' W 002°30'11 4.5
2020-Aug-07 01:01N 49°32' W 002°15'2013.5
2020-Aug-06 23:30N 49°49' W 001°58'3014.9
2020-Aug-06 21:30N 50°12' W 001°29'2315.3
2020-Aug-06 20:00N 50°32' W 001°10'17 4.3
2020-Aug-06 16:00N 50°49' W 001°06'21 8.4
2020-Aug-06 13:30N 50°29' W 001°16'8511.1
2020-Aug-06 05:53N 49°11' W 002°07'0 0.0
2020-Aug-06 05:29N 49°11' W 002°07'8 7.9
2020-Aug-06 04:30N 49°11' W 002°19'918.8
2020-Aug-06 04:00N 49°20' W 002°25'7 3.4
2020-Aug-06 02:01N 49°26' W 002°29'917.4
2020-Aug-06 01:30N 49°30' W 002°18'8715.9
2020-Aug-05 20:00N 50°44' W 001°04'510.6
2020-Aug-05 19:30N 50°49' W 001°06'1 0.3
2020-Aug-05 17:30N 50°49' W 001°06'14 3.9
2020-Aug-05 14:00N 50°35' W 001°09'6614.7
2020-Aug-05 09:30N 49°39' W 002°05'30 6.1
2020-Aug-05 04:31N 49°10' W 002°17'26 6.5
2020-Aug-05 00:30N 49°36' W 002°09'3216.3
2020-Aug-04 22:30N 50°03' W 001°41'2114.1
2020-Aug-04 21:00N 50°20' W 001°21'1714.7
2020-Aug-04 19:53N 50°34' W 001°08'15 5.1
2020-Aug-04 17:00N 50°49' W 001°06'58 9.7
2020-Aug-04 11:00N 49°58' W 001°51'2214.5
2020-Aug-04 09:30N 49°39' W 002°06'816.0
2020-Aug-04 09:00N 49°32' W 002°11'815.1
2020-Aug-04 08:30N 49°24' W 002°15'15 4.2
2020-Aug-04 04:59N 49°11' W 002°07'1413.8
2020-Aug-04 04:00N 49°18' W 002°24'1010.5
2020-Aug-04 03:00N 49°27' W 002°32'4810.6
2020-Aug-03 22:30N 50°03' W 001°42'5210.3
2020-Aug-03 17:30N 50°49' W 001°06'0 0.0
2020-Aug-03 16:30N 50°49' W 001°06'0 0.0
2020-Aug-03 15:30N 50°49' W 001°06'3411.9
2020-Aug-03 12:37N 50°19' W 001°32'2614.4
2020-Aug-03 10:49N 49°55' W 001°49'1214.8
2020-Aug-03 10:01N 49°46' W 002°00'714.5
2020-Aug-03 09:31N 49°39' W 002°06'714.3
2020-Aug-03 09:01N 49°33' W 002°10'2211.1
2020-Aug-03 06:59N 49°10' W 002°07'0 0.1
2020-Aug-03 05:30N 49°11' W 002°07'7 7.0
2020-Aug-03 04:31N 49°10' W 002°18'1110.6
2020-Aug-03 03:30N 49°20' W 002°25'28 8.1
2020-Aug-03 00:01N 49°44' W 002°03'7411.4
2020-Aug-02 17:31N 50°49' W 001°06'0 0.1
2020-Aug-02 16:30N 50°49' W 001°06'0 0.0
2020-Aug-02 13:30N 50°49' W 001°06'0 0.0
2020-Aug-02 13:00N 50°49' W 001°06'0 0.0
2020-Aug-02 12:30N 50°49' W 001°06'0 0.0
2020-Aug-02 10:30N 50°49' W 001°06'0 0.0
2020-Aug-02 10:00N 50°49' W 001°06'0 0.0
2020-Aug-02 06:30N 50°49' W 001°06'12 7.7
2020-Aug-02 05:00N 50°37' W 001°07'815.7
2020-Aug-02 04:28N 50°30' W 001°13'4014.5
2020-Aug-02 01:43N 49°57' W 001°49'912.4
2020-Aug-02 01:00N 49°51' W 001°58'17 6.7
2020-Aug-01 22:31N 49°34' W 002°03'21 3.3
2020-Aug-01 16:00N 49°18' W 002°24'10 5.2
2020-Aug-01 14:00N 49°10' W 002°15'5 2.1
2020-Aug-01 11:30N 49°11' W 002°07'0 0.0
2020-Aug-01 09:30N 49°11' W 002°07'13 3.3
2020-Aug-01 05:31N 49°16' W 002°25'10 4.1
2020-Aug-01 03:00N 49°26' W 002°26'714.3
2020-Aug-01 02:30N 49°31' W 002°17'2914.6
2020-Aug-01 00:31N 49°54' W 001°50'915.5
2020-Jul-31 23:55N 50°01' W 001°41'53 8.9
2020-Jul-31 18:00N 50°49' W 001°06'16 6.3
2020-Jul-31 15:30N 50°33' W 001°10'5615.9
2020-Jul-31 12:00N 49°48' W 001°59'2914.7
2020-Jul-31 10:00N 49°27' W 002°32'23 6.6
2020-Jul-31 06:31N 49°11' W 002°07'0 0.0
2020-Jul-31 06:00N 49°11' W 002°07'0 0.0
2020-Jul-31 05:00N 49°11' W 002°07'9 9.5
2020-Jul-31 04:00N 49°14' W 002°21'4013.4
2020-Jul-31 01:01N 49°50' W 001°55'713.4
2020-Jul-31 00:30N 49°55' W 001°48'2713.4
2020-Jul-30 22:31N 50°18' W 001°25'1212.2
2020-Jul-30 21:30N 50°29' W 001°17'1615.7
2020-Jul-30 20:31N 50°41' W 001°03'8 7.5
2020-Jul-30 19:30N 50°49' W 001°06'41 6.8
2020-Jul-30 13:30N 50°13' W 001°36'5016.7
2020-Jul-30 10:30N 49°33' W 002°24'8 5.1
2020-Jul-30 09:00N 49°27' W 002°32'0 0.0
2020-Jul-30 08:30N 49°27' W 002°32'23 9.3
2020-Jul-30 06:00N 49°11' W 002°07'  
Track history (hours):
 
Tides and Currents Weather Stations Pressure Air Temp Water Temp Dewpoint Dewpoint Depression Visibility Wind Speed Wind Dir Waves Ship Positions

Commodore Goodwill

Operator: Condor Marine Services

Last reported at 2020-Aug-09 04:17 UTC. Time now 2020-Aug-09 05:11 UTC.
Position N 50°29' W 001°15'.

Length 126 m; draft 5 m.

Type: Ship (hazmat cat C). MMSI: 309536000.

Date/timePositionNaut miles runAvg speedWind from/ knotsBaromVisibWave heightAir tempDewpointWater temp
2020-Aug-09 04:17N 50°29' W 001°15'45 9.3
2020-Aug-08 23:30N 49°52' W 001°53'9 8.9
2020-Aug-08 22:30N 49°44' W 002°01'1010.2
2020-Aug-08 21:30N 49°35' W 002°05'2 0.6
2020-Aug-08 17:30N 49°36' W 002°09'14 4.5
2020-Aug-08 14:30N 49°27' W 002°25'5 3.1
2020-Aug-08 13:01N 49°27' W 002°32'8 5.4
2020-Aug-08 11:30N 49°20' W 002°25'4 7.3
2020-Aug-08 11:00N 49°17' W 002°23'12 7.7
2020-Aug-08 09:28N 49°10' W 002°09'1 2.7
2020-Aug-08 08:55N 49°11' W 002°07'0 0.0
2020-Aug-08 08:00N 49°11' W 002°07'9 3.0
2020-Aug-08 05:00N 49°13' W 002°20'8 8.1
2020-Aug-08 04:00N 49°20' W 002°25'3 6.0
2020-Aug-08 03:30N 49°23' W 002°27'4 7.0
2020-Aug-08 03:00N 49°26' W 002°29'9 4.4
2020-Aug-08 01:00N 49°30' W 002°18'1413.6
2020-Aug-08 00:00N 49°41' W 002°05'2914.7
2020-Aug-07 22:00N 50°06' W 001°40'3815.2
2020-Aug-07 19:31N 50°36' W 001°05'13 6.3
2020-Aug-07 17:31N 50°49' W 001°06'0 0.0
2020-Aug-07 16:31N 50°49' W 001°06'14 5.8
2020-Aug-07 14:00N 50°35' W 001°10'1515.4
2020-Aug-07 13:00N 50°22' W 001°23'918.3
2020-Aug-07 12:30N 50°15' W 001°32'3015.2
2020-Aug-07 10:30N 49°49' W 001°57'816.3
2020-Aug-07 10:00N 49°42' W 002°04'31 8.9
2020-Aug-07 06:28N 49°11' W 002°07'6 3.9
2020-Aug-07 05:01N 49°10' W 002°16'510.9
2020-Aug-07 04:31N 49°14' W 002°21'713.4
2020-Aug-07 04:00N 49°20' W 002°25'612.8
2020-Aug-07 03:30N 49°26' W 002°30'11 4.5
2020-Aug-07 01:01N 49°32' W 002°15'2013.5
2020-Aug-06 23:30N 49°49' W 001°58'3014.9
2020-Aug-06 21:30N 50°12' W 001°29'2315.3
2020-Aug-06 20:00N 50°32' W 001°10'17 4.3
2020-Aug-06 16:00N 50°49' W 001°06'21 8.4
2020-Aug-06 13:30N 50°29' W 001°16'8511.1
2020-Aug-06 05:53N 49°11' W 002°07'0 0.0
2020-Aug-06 05:29N 49°11' W 002°07'8 7.9
2020-Aug-06 04:30N 49°11' W 002°19'918.8
2020-Aug-06 04:00N 49°20' W 002°25'7 3.4
2020-Aug-06 02:01N 49°26' W 002°29'917.4
2020-Aug-06 01:30N 49°30' W 002°18'8715.9
2020-Aug-05 20:00N 50°44' W 001°04'510.6
2020-Aug-05 19:30N 50°49' W 001°06'1 0.3
2020-Aug-05 17:30N 50°49' W 001°06'14 3.9
2020-Aug-05 14:00N 50°35' W 001°09'6614.7
2020-Aug-05 09:30N 49°39' W 002°05'30 6.1
2020-Aug-05 04:31N 49°10' W 002°17'26 6.5
2020-Aug-05 00:30N 49°36' W 002°09'3216.3
2020-Aug-04 22:30N 50°03' W 001°41'2114.1
2020-Aug-04 21:00N 50°20' W 001°21'1714.7
2020-Aug-04 19:53N 50°34' W 001°08'15 5.1
2020-Aug-04 17:00N 50°49' W 001°06'58 9.7
2020-Aug-04 11:00N 49°58' W 001°51'2214.5
2020-Aug-04 09:30N 49°39' W 002°06'816.0
2020-Aug-04 09:00N 49°32' W 002°11'815.1
2020-Aug-04 08:30N 49°24' W 002°15'15 4.2
2020-Aug-04 04:59N 49°11' W 002°07'1413.8
2020-Aug-04 04:00N 49°18' W 002°24'1010.5
2020-Aug-04 03:00N 49°27' W 002°32'4810.6
2020-Aug-03 22:30N 50°03' W 001°42'5210.3
2020-Aug-03 17:30N 50°49' W 001°06'0 0.0
2020-Aug-03 16:30N 50°49' W 001°06'0 0.0
2020-Aug-03 15:30N 50°49' W 001°06'3411.9
2020-Aug-03 12:37N 50°19' W 001°32'2614.4
2020-Aug-03 10:49N 49°55' W 001°49'1214.8
2020-Aug-03 10:01N 49°46' W 002°00'714.5
2020-Aug-03 09:31N 49°39' W 002°06'714.3
2020-Aug-03 09:01N 49°33' W 002°10'2211.1
2020-Aug-03 06:59N 49°10' W 002°07'0 0.1
2020-Aug-03 05:30N 49°11' W 002°07'7 7.0
2020-Aug-03 04:31N 49°10' W 002°18'1110.6
2020-Aug-03 03:30N 49°20' W 002°25'28 8.1
2020-Aug-03 00:01N 49°44' W 002°03'7411.4
2020-Aug-02 17:31N 50°49' W 001°06'0 0.1
2020-Aug-02 16:30N 50°49' W 001°06'0 0.0
2020-Aug-02 13:30N 50°49' W 001°06'0 0.0
2020-Aug-02 13:00N 50°49' W 001°06'0 0.0
2020-Aug-02 12:30N 50°49' W 001°06'0 0.0
2020-Aug-02 10:30N 50°49' W 001°06'0 0.0
2020-Aug-02 10:00N 50°49' W 001°06'0 0.0
2020-Aug-02 06:30N 50°49' W 001°06'12 7.7
2020-Aug-02 05:00N 50°37' W 001°07'815.7
2020-Aug-02 04:28N 50°30' W 001°13'4014.5
2020-Aug-02 01:43N 49°57' W 001°49'912.4
2020-Aug-02 01:00N 49°51' W 001°58'17 6.7
2020-Aug-01 22:31N 49°34' W 002°03'21 3.3
2020-Aug-01 16:00N 49°18' W 002°24'10 5.2
2020-Aug-01 14:00N 49°10' W 002°15'5 2.1
2020-Aug-01 11:30N 49°11' W 002°07'0 0.0
2020-Aug-01 09:30N 49°11' W 002°07'13 3.3
2020-Aug-01 05:31N 49°16' W 002°25'10 4.1
2020-Aug-01 03:00N 49°26' W 002°26'714.3
2020-Aug-01 02:30N 49°31' W 002°17'2914.6
2020-Aug-01 00:31N 49°54' W 001°50'915.5
2020-Jul-31 23:55N 50°01' W 001°41'53 8.9
2020-Jul-31 18:00N 50°49' W 001°06'16 6.3
2020-Jul-31 15:30N 50°33' W 001°10'5615.9
2020-Jul-31 12:00N 49°48' W 001°59'2914.7
2020-Jul-31 10:00N 49°27' W 002°32'23 6.6
2020-Jul-31 06:31N 49°11' W 002°07'0 0.0
2020-Jul-31 06:00N 49°11' W 002°07'0 0.0
2020-Jul-31 05:00N 49°11' W 002°07'9 9.5
2020-Jul-31 04:00N 49°14' W 002°21'4013.4
2020-Jul-31 01:01N 49°50' W 001°55'713.4
2020-Jul-31 00:30N 49°55' W 001°48'2713.4
2020-Jul-30 22:31N 50°18' W 001°25'1212.2
2020-Jul-30 21:30N 50°29' W 001°17'1615.7
2020-Jul-30 20:31N 50°41' W 001°03'8 7.5
2020-Jul-30 19:30N 50°49' W 001°06'41 6.8
2020-Jul-30 13:30N 50°13' W 001°36'5016.7
2020-Jul-30 10:30N 49°33' W 002°24'8 5.1
2020-Jul-30 09:00N 49°27' W 002°32'0 0.0
2020-Jul-30 08:30N 49°27' W 002°32'23 9.3
2020-Jul-30 06:00N 49°11' W 002°07'  

Dump ship's entire track history